Time;durP1;ratioP1;P1;durP2;ratioP2;P2;SDS_P1;SDS_P2;PMS_P1;PMS_P2;Temp;Humidity;BMP_temperature;BMP_pressure;BME280_temperature;BME280_humidity;BME280_pressure;Samples;Min_cycle;Max_cycle;Signal;HPM_P1;HPM_P2
2020/12/17 00:00:08;;;;;;;40.90;32.13;;;;;;;;;;5052713;28;20370;-80
2020/12/17 00:02:34;;;;;;;42.63;32.42;;;;;;;;;;5053115;28;20366;-80
2020/12/17 00:05:00;;;;;;;41.58;31.20;;;;;;;;;;5071431;28;20460;-80
2020/12/17 00:07:26;;;;;;;42.57;32.43;;;;;;;;;;5053138;28;20377;-81
2020/12/17 00:09:52;;;;;;;38.95;30.10;;;;;;;;;;5070525;28;20358;-80
2020/12/17 00:12:18;;;;;;;40.72;31.13;;;;;;;;;;5070360;28;20820;-80
2020/12/17 00:14:44;;;;;;;38.60;30.80;;;;;;;;;;5053082;28;20484;-80
2020/12/17 00:17:10;;;;;;;37.95;29.63;;;;;;;;;;5070562;28;20674;-80
2020/12/17 00:19:37;;;;;;;40.83;30.60;;;;;;;;;;5070488;28;20358;-80
2020/12/17 00:22:03;;;;;;;42.17;31.20;;;;;;;;;;5052867;28;20370;-80
2020/12/17 00:24:29;;;;;;;37.70;30.48;;;;;;;;;;5070678;28;20377;-80
2020/12/17 00:26:55;;;;;;;36.13;30.42;;;;;;;;;;5052866;28;20366;-80
2020/12/17 00:29:21;;;;;;;38.80;30.83;;;;;;;;;;5052298;28;20366;-79
2020/12/17 00:31:50;;;;;;;37.40;29.47;;;;;;;;;;5070474;28;20412;-80
2020/12/17 00:34:16;;;;;;;38.30;30.25;;;;;;;;;;5052613;28;20440;-80
2020/12/17 00:36:42;;;;;;;38.25;29.52;;;;;;;;;;5052504;28;20946;-80
2020/12/17 00:39:09;;;;;;;36.80;28.88;;;;;;;;;;5052455;28;20401;-80
2020/12/17 00:41:36;;;;;;;37.10;29.35;;;;;;;;;;5070771;28;20377;-80
2020/12/17 00:44:03;;;;;;;36.70;29.88;;;;;;;;;;5070519;28;20380;-80
2020/12/17 00:46:29;;;;;;;37.42;29.33;;;;;;;;;;5052365;28;20419;-80
2020/12/17 00:48:56;;;;;;;36.23;28.47;;;;;;;;;;5052623;28;20366;-80
2020/12/17 00:51:22;;;;;;;36.58;28.90;;;;;;;;;;5070234;28;20368;-80
2020/12/17 00:53:48;;;;;;;37.08;29.23;;;;;;;;;;5070237;28;20365;-80
2020/12/17 00:56:14;;;;;;;37.03;28.40;;;;;;;;;;5070191;28;20398;-80
2020/12/17 00:58:40;;;;;;;35.38;28.30;;;;;;;;;;5069966;28;20369;-80
2020/12/17 01:01:07;;;;;;;36.80;28.45;;;;;;;;;;5052019;28;20381;-79
2020/12/17 01:03:33;;;;;;;34.72;27.65;;;;;;;;;;5052442;28;21064;-80
2020/12/17 01:05:59;;;;;;;36.25;28.83;;;;;;;;;;5070209;28;20717;-80
2020/12/17 01:08:25;;;;;;;34.20;28.20;;;;;;;;;;5052236;28;20366;-79
2020/12/17 01:10:51;;;;;;;35.53;28.00;;;;;;;;;;5069953;28;20756;-80
2020/12/17 01:13:17;;;;;;;34.80;27.77;;;;;;;;;;5070234;28;20354;-80
2020/12/17 01:15:43;;;;;;;34.70;28.55;;;;;;;;;;5051510;28;20477;-80
2020/12/17 01:18:09;;;;;;;35.25;27.48;;;;;;;;;;5069995;28;20500;-80
2020/12/17 01:20:35;;;;;;;34.03;28.08;;;;;;;;;;5069928;28;20357;-79
2020/12/17 01:23:01;;;;;;;33.85;28.40;;;;;;;;;;5052134;28;20358;-80
2020/12/17 01:25:27;;;;;;;34.33;28.52;;;;;;;;;;5055982;28;20729;-80
2020/12/17 01:27:53;;;;;;;35.97;29.20;;;;;;;;;;5056166;28;20502;-80
2020/12/17 01:30:19;;;;;;;35.07;28.07;;;;;;;;;;5073881;28;20362;-80
2020/12/17 01:32:45;;;;;;;35.13;28.42;;;;;;;;;;5073897;28;20436;-80
2020/12/17 01:35:11;;;;;;;35.30;28.02;;;;;;;;;;5056063;28;20790;-80
2020/12/17 01:37:37;;;;;;;32.67;27.50;;;;;;;;;;5055825;28;20860;-80
2020/12/17 01:40:04;;;;;;;32.90;27.25;;;;;;;;;;5055461;28;20373;-80
2020/12/17 01:42:30;;;;;;;33.55;27.80;;;;;;;;;;5055932;28;20381;-80
2020/12/17 01:44:56;;;;;;;35.58;28.95;;;;;;;;;;5073883;28;20363;-80
2020/12/17 01:47:21;;;;;;;34.63;28.27;;;;;;;;;;5073902;28;21157;-81
2020/12/17 01:49:47;;;;;;;34.97;28.50;;;;;;;;;;5073279;28;20821;-80
2020/12/17 01:52:14;;;;;;;36.40;29.17;;;;;;;;;;5073463;28;20392;-80
2020/12/17 01:54:40;;;;;;;36.10;28.58;;;;;;;;;;5073102;28;20442;-80
2020/12/17 01:57:06;;;;;;;36.88;30.05;;;;;;;;;;5055366;28;20363;-80
2020/12/17 01:59:39;;;;;;;36.67;29.60;;;;;;;;;;5073056;28;20382;-80
2020/12/17 02:02:09;;;;;;;36.33;29.38;;;;;;;;;;5073331;28;20392;-80
2020/12/17 02:04:35;;;;;;;37.25;29.83;;;;;;;;;;5055196;28;20381;-79
2020/12/17 02:07:01;;;;;;;39.53;30.38;;;;;;;;;;5055038;28;20872;-80
2020/12/17 02:09:27;;;;;;;35.67;28.80;;;;;;;;;;5073290;28;20409;-80
2020/12/17 02:11:54;;;;;;;38.05;29.48;;;;;;;;;;5055012;28;20771;-80
2020/12/17 02:14:20;;;;;;;36.93;29.77;;;;;;;;;;5073440;28;20957;-79
2020/12/17 02:16:46;;;;;;;36.63;29.10;;;;;;;;;;5073284;28;20397;-80
2020/12/17 02:19:13;;;;;;;39.15;30.67;;;;;;;;;;5072823;28;20382;-80
2020/12/17 02:21:39;;;;;;;36.35;29.40;;;;;;;;;;5072837;28;20384;-80
2020/12/17 02:24:05;;;;;;;39.13;29.98;;;;;;;;;;5072996;28;20370;-80
2020/12/17 02:26:31;;;;;;;37.40;29.90;;;;;;;;;;5054921;28;20378;-80
2020/12/17 02:28:57;;;;;;;39.45;31.85;;;;;;;;;;5054971;28;20875;-81
2020/12/17 02:31:26;;;;;;;40.60;30.50;;;;;;;;;;5072928;28;20366;-80
2020/12/17 02:33:52;;;;;;;37.58;29.73;;;;;;;;;;5055023;28;20377;-80
2020/12/17 02:36:18;;;;;;;41.17;32.45;;;;;;;;;;5072335;28;20443;-80
2020/12/17 02:38:45;;;;;;;42.08;32.05;;;;;;;;;;5054834;28;20378;-80
2020/12/17 02:41:11;;;;;;;43.75;32.67;;;;;;;;;;5072766;28;20377;-80
2020/12/17 02:43:37;;;;;;;39.25;31.42;;;;;;;;;;5072803;28;20354;-80
2020/12/17 02:46:03;;;;;;;40.70;32.55;;;;;;;;;;5054899;28;20397;-80
2020/12/17 02:48:29;;;;;;;40.33;31.15;;;;;;;;;;5072632;28;20840;-80
2020/12/17 02:50:55;;;;;;;42.50;31.95;;;;;;;;;;5054265;28;20398;-80
2020/12/17 02:53:21;;;;;;;41.95;31.80;;;;;;;;;;5054582;28;20417;-80
2020/12/17 02:55:47;;;;;;;41.73;31.63;;;;;;;;;;5072264;28;20491;-80
2020/12/17 02:58:14;;;;;;;40.83;32.35;;;;;;;;;;5072217;28;20821;-80
2020/12/17 03:00:40;;;;;;;45.60;33.27;;;;;;;;;;5071964;28;20682;-80
2020/12/17 03:03:06;;;;;;;46.83;34.55;;;;;;;;;;5072368;28;20354;-80
2020/12/17 03:05:32;;;;;;;44.28;34.13;;;;;;;;;;5054161;28;20387;-80
2020/12/17 03:07:58;;;;;;;45.30;33.73;;;;;;;;;;5072024;28;20369;-80
2020/12/17 03:10:24;;;;;;;46.97;34.33;;;;;;;;;;5054071;28;20374;-80
2020/12/17 03:12:51;;;;;;;45.90;33.70;;;;;;;;;;5072106;28;20358;-80
2020/12/17 03:15:17;;;;;;;45.13;35.42;;;;;;;;;;5054064;28;20413;-80
2020/12/17 03:17:43;;;;;;;48.60;35.40;;;;;;;;;;5053926;28;20373;-80
2020/12/17 03:20:10;;;;;;;51.17;36.67;;;;;;;;;;5072126;28;20347;-80
2020/12/17 03:22:36;;;;;;;47.80;35.17;;;;;;;;;;5053848;28;20377;-80
2020/12/17 03:25:03;;;;;;;47.58;34.72;;;;;;;;;;5071973;28;20445;-80
2020/12/17 03:27:29;;;;;;;47.53;35.83;;;;;;;;;;5071605;28;20441;-80
2020/12/17 03:29:55;;;;;;;48.78;36.65;;;;;;;;;;5053634;28;20845;-80
2020/12/17 03:32:21;;;;;;;45.73;34.60;;;;;;;;;;5071758;28;20416;-80
2020/12/17 03:34:47;;;;;;;48.00;36.45;;;;;;;;;;5071581;28;20390;-80
2020/12/17 03:37:13;;;;;;;45.78;34.67;;;;;;;;;;5071843;28;20366;-80
2020/12/17 03:39:39;;;;;;;47.10;34.65;;;;;;;;;;5071220;28;20369;-80
2020/12/17 03:42:05;;;;;;;44.30;34.50;;;;;;;;;;5071523;28;20354;-80
2020/12/17 03:44:31;;;;;;;47.20;35.27;;;;;;;;;;5053568;28;20370;-80
2020/12/17 03:46:57;;;;;;;45.92;35.53;;;;;;;;;;5070487;28;20420;-80
2020/12/17 03:49:23;;;;;;;46.63;36.10;;;;;;;;;;5070839;28;20374;-80
2020/12/17 03:51:49;;;;;;;50.20;35.37;;;;;;;;;;5053310;28;20779;-80
2020/12/17 03:54:15;;;;;;;51.88;37.03;;;;;;;;;;5071276;28;20362;-80
2020/12/17 03:56:41;;;;;;;50.17;36.35;;;;;;;;;;5053332;28;20363;-80
2020/12/17 03:59:07;;;;;;;50.25;36.45;;;;;;;;;;5052890;28;20378;-80
2020/12/17 04:01:33;;;;;;;49.00;35.83;;;;;;;;;;5071041;28;20852;-80
2020/12/17 04:03:59;;;;;;;52.73;37.37;;;;;;;;;;5071320;28;20358;-80
2020/12/17 04:06:25;;;;;;;50.83;36.97;;;;;;;;;;5053040;28;20379;-80
2020/12/17 04:08:51;;;;;;;52.95;37.70;;;;;;;;;;5071143;28;20366;-80
2020/12/17 04:11:17;;;;;;;53.42;38.42;;;;;;;;;;5070719;28;20366;-79
2020/12/17 04:13:43;;;;;;;51.60;38.22;;;;;;;;;;5052963;28;20377;-81
2020/12/17 04:16:09;;;;;;;52.22;38.80;;;;;;;;;;5052861;28;20398;-81
2020/12/17 04:18:35;;;;;;;53.90;37.60;;;;;;;;;;5053077;28;20366;-80
2020/12/17 04:21:01;;;;;;;53.17;37.85;;;;;;;;;;5070741;28;20374;-80
2020/12/17 04:23:27;;;;;;;49.47;37.88;;;;;;;;;;5053016;28;20793;-80
2020/12/17 04:25:53;;;;;;;51.10;37.95;;;;;;;;;;5070800;28;20721;-80
2020/12/17 04:28:19;;;;;;;55.72;39.15;;;;;;;;;;5071044;28;20369;-80
2020/12/17 04:30:45;;;;;;;55.07;38.87;;;;;;;;;;5052529;28;20386;-80
2020/12/17 04:33:11;;;;;;;53.22;38.25;;;;;;;;;;5052804;28;20388;-80
2020/12/17 04:35:37;;;;;;;54.67;39.08;;;;;;;;;;5070736;28;20763;-79
2020/12/17 04:38:03;;;;;;;53.10;39.22;;;;;;;;;;5070729;28;20370;-80
2020/12/17 04:40:29;;;;;;;54.03;39.60;;;;;;;;;;5052213;28;20473;-81
2020/12/17 04:42:56;;;;;;;55.53;40.17;;;;;;;;;;5052545;28;20358;-80
2020/12/17 04:45:23;;;;;;;52.30;38.05;;;;;;;;;;5070347;28;20406;-80
2020/12/17 04:47:49;;;;;;;54.77;39.27;;;;;;;;;;5052758;28;20371;-81
2020/12/17 04:50:16;;;;;;;55.50;40.15;;;;;;;;;;5052580;28;20369;-80
2020/12/17 04:52:43;;;;;;;61.17;41.90;;;;;;;;;;5052382;28;20435;-80
2020/12/17 04:55:10;;;;;;;56.08;40.60;;;;;;;;;;5052327;28;20394;-80
2020/12/17 04:57:44;;;;;;;55.63;39.60;;;;;;;;;;5052876;28;20872;-80
2020/12/17 05:00:10;;;;;;;56.30;40.70;;;;;;;;;;5074146;28;20445;-79
2020/12/17 05:02:36;;;;;;;57.08;41.03;;;;;;;;;;5074833;28;20390;-80
2020/12/17 05:05:02;;;;;;;51.75;37.53;;;;;;;;;;5074895;28;20369;-80
2020/12/17 05:07:28;;;;;;;53.13;38.83;;;;;;;;;;5056456;28;20412;-79
2020/12/17 05:09:55;;;;;;;54.53;40.35;;;;;;;;;;5056081;28;20374;-79
2020/12/17 05:12:21;;;;;;;54.88;39.25;;;;;;;;;;5056231;28;20888;-79
2020/12/17 05:14:48;;;;;;;51.33;37.83;;;;;;;;;;5074310;28;20397;-80
2020/12/17 05:17:14;;;;;;;53.78;39.75;;;;;;;;;;5074034;28;20358;-80
2020/12/17 05:19:43;;;;;;;53.47;38.90;;;;;;;;;;5074085;28;20892;-79
2020/12/17 05:22:12;;;;;;;52.15;39.05;;;;;;;;;;5056149;28;20372;-80
2020/12/17 05:24:38;;;;;;;54.30;39.17;;;;;;;;;;5074120;28;20464;-80
2020/12/17 05:27:04;;;;;;;52.83;39.63;;;;;;;;;;5074010;28;20360;-80
2020/12/17 05:29:30;;;;;;;55.90;39.67;;;;;;;;;;5073763;28;20438;-80
2020/12/17 05:31:56;;;;;;;55.17;39.30;;;;;;;;;;5073876;28;20414;-80
2020/12/17 05:34:22;;;;;;;55.47;40.08;;;;;;;;;;5055835;28;20400;-80
2020/12/17 05:36:48;;;;;;;53.25;39.38;;;;;;;;;;5055945;28;20366;-81
2020/12/17 05:39:16;;;;;;;53.80;39.33;;;;;;;;;;5067735;28;20405;-80
2020/12/17 05:41:43;;;;;;;56.00;39.55;;;;;;;;;;5066622;28;20436;-79
2020/12/17 05:44:09;;;;;;;53.03;39.88;;;;;;;;;;5055900;28;20389;-84
2020/12/17 05:46:35;;;;;;;54.50;39.13;;;;;;;;;;5056325;28;20375;-87
2020/12/17 05:49:08;;;;;;;55.53;39.28;;;;;;;;;;5055531;28;20370;-86
2020/12/17 05:51:34;;;;;;;51.90;38.47;;;;;;;;;;5064152;28;20727;-85
2020/12/17 05:54:01;;;;;;;54.25;39.20;;;;;;;;;;5054916;28;20382;-85
2020/12/17 05:56:29;;;;;;;55.25;39.67;;;;;;;;;;5061858;28;20510;-85
2020/12/17 05:59:01;;;;;;;52.83;38.85;;;;;;;;;;5060740;28;20391;-84
2020/12/17 06:01:27;;;;;;;55.25;40.53;;;;;;;;;;5045029;28;20384;-84
2020/12/17 06:03:53;;;;;;;54.65;39.83;;;;;;;;;;5047888;28;20410;-84
2020/12/17 06:06:20;;;;;;;53.72;40.40;;;;;;;;;;5050061;28;20394;-84
2020/12/17 06:08:50;;;;;;;55.97;40.38;;;;;;;;;;5062963;28;20382;-84
2020/12/17 06:11:17;;;;;;;53.70;39.17;;;;;;;;;;5059530;28;20370;-83
2020/12/17 06:13:43;;;;;;;53.22;38.95;;;;;;;;;;5051048;28;20380;-84
2020/12/17 06:16:11;;;;;;;52.95;38.83;;;;;;;;;;5049354;28;20400;-83
2020/12/17 06:18:37;;;;;;;52.72;39.47;;;;;;;;;;5065823;28;20423;-84
2020/12/17 06:21:05;;;;;;;54.83;39.70;;;;;;;;;;5046551;28;20476;-83
2020/12/17 06:23:32;;;;;;;54.08;38.90;;;;;;;;;;5063351;28;20370;-82
2020/12/17 06:25:58;;;;;;;49.80;38.45;;;;;;;;;;5044166;28;20380;-82
2020/12/17 06:28:37;;;;;;;52.40;38.83;;;;;;;;;;5063304;28;20362;-82
2020/12/17 06:31:04;;;;;;;52.85;37.72;;;;;;;;;;5043253;28;20770;-82
2020/12/17 06:33:30;;;;;;;51.67;38.55;;;;;;;;;;5044316;28;20410;-83
2020/12/17 06:35:59;;;;;;;49.42;36.72;;;;;;;;;;5041631;28;20481;-83
2020/12/17 06:38:25;;;;;;;53.70;39.13;;;;;;;;;;5043606;28;20411;-81
2020/12/17 06:40:52;;;;;;;48.55;36.95;;;;;;;;;;5062152;28;20770;-83
2020/12/17 06:43:32;;;;;;;51.00;38.03;;;;;;;;;;5063205;28;20419;-83
2020/12/17 06:45:58;;;;;;;49.00;36.97;;;;;;;;;;5045354;28;20459;-83
2020/12/17 06:48:35;;;;;;;50.47;36.88;;;;;;;;;;5061270;28;20368;-83
2020/12/17 06:51:02;;;;;;;47.72;35.75;;;;;;;;;;5043017;28;20455;-83
2020/12/17 06:53:38;;;;;;;46.58;35.03;;;;;;;;;;5044718;28;20407;-83
2020/12/17 06:56:04;;;;;;;44.47;34.13;;;;;;;;;;5043002;28;20905;-83
2020/12/17 06:58:30;;;;;;;50.43;34.37;;;;;;;;;;5044696;28;20396;-82
2020/12/17 07:00:56;;;;;;;44.95;33.75;;;;;;;;;;5059502;28;20426;-83
2020/12/17 07:03:42;;;;;;;43.55;33.42;;;;;;;;;;5058053;28;20376;-84
2020/12/17 07:06:12;;;;;;;44.22;33.22;;;;;;;;;;5043833;28;20390;-83
2020/12/17 07:08:38;;;;;;;40.92;33.30;;;;;;;;;;5060308;28;20386;-84
2020/12/17 07:11:05;;;;;;;44.10;33.72;;;;;;;;;;5060364;28;20377;-84
2020/12/17 07:13:38;;;;;;;40.37;31.37;;;;;;;;;;5044706;28;20429;-83
2020/12/17 07:16:04;;;;;;;42.30;31.92;;;;;;;;;;5038851;28;20955;-85
2020/12/17 07:18:31;;;;;;;39.75;31.52;;;;;;;;;;5044252;28;20742;-84
2020/12/17 07:21:06;;;;;;;39.30;31.80;;;;;;;;;;5058016;28;20366;-84
2020/12/17 07:23:35;;;;;;;40.65;31.70;;;;;;;;;;5059403;28;20789;-85
2020/12/17 07:26:05;;;;;;;38.80;30.13;;;;;;;;;;5042976;28;20384;-85
2020/12/17 07:28:33;;;;;;;39.60;30.02;;;;;;;;;;5041991;28;20473;-84
2020/12/17 07:30:59;;;;;;;37.85;30.55;;;;;;;;;;5049923;28;20544;-83
2020/12/17 07:33:34;;;;;;;40.07;30.83;;;;;;;;;;5061663;28;20818;-84
2020/12/17 07:36:00;;;;;;;37.95;30.10;;;;;;;;;;5062497;28;20408;-84
2020/12/17 07:38:26;;;;;;;42.22;33.10;;;;;;;;;;5041244;28;20431;-84
2020/12/17 07:40:54;;;;;;;38.08;31.17;;;;;;;;;;5061397;28;20381;-84
2020/12/17 07:43:32;;;;;;;36.90;28.95;;;;;;;;;;5065244;28;20359;-84
2020/12/17 07:46:04;;;;;;;38.53;29.25;;;;;;;;;;5062839;28;20856;-84
2020/12/17 07:48:54;;;;;;;36.50;28.83;;;;;;;;;;5044068;28;20380;-84
2020/12/17 07:51:20;;;;;;;37.60;28.80;;;;;;;;;;5055784;28;20368;-82
2020/12/17 07:53:47;;;;;;;35.47;28.00;;;;;;;;;;5041750;28;20370;-82
2020/12/17 07:56:13;;;;;;;36.10;28.27;;;;;;;;;;5043617;28;21006;-85
2020/12/17 07:58:40;;;;;;;36.45;28.38;;;;;;;;;;5061202;28;20485;-80
2020/12/17 08:01:06;;;;;;;35.08;27.27;;;;;;;;;;5058928;28;20450;-80
2020/12/17 08:03:42;;;;;;;37.03;27.23;;;;;;;;;;5049648;28;20372;-81
2020/12/17 08:06:11;;;;;;;32.60;26.98;;;;;;;;;;5046280;28;20412;-82
2020/12/17 08:08:38;;;;;;;34.33;27.23;;;;;;;;;;5041707;28;20473;-80
2020/12/17 08:11:05;;;;;;;34.47;27.00;;;;;;;;;;5038755;28;20364;-80
2020/12/17 08:13:31;;;;;;;35.78;26.13;;;;;;;;;;5055978;28;20374;-80
2020/12/17 08:15:58;;;;;;;34.72;26.83;;;;;;;;;;5054550;28;20678;-81
2020/12/17 08:18:24;;;;;;;31.65;25.55;;;;;;;;;;5037284;28;20429;-83
2020/12/17 08:20:59;;;;;;;34.85;26.60;;;;;;;;;;5054424;28;20368;-82
2020/12/17 08:23:27;;;;;;;33.45;27.05;;;;;;;;;;5056521;28;20418;-81
2020/12/17 08:25:53;;;;;;;31.42;25.15;;;;;;;;;;5061703;28;20372;-81
2020/12/17 08:28:20;;;;;;;33.33;25.55;;;;;;;;;;5065155;28;20402;-85
2020/12/17 08:30:47;;;;;;;29.88;25.17;;;;;;;;;;5056730;28;20368;-81
2020/12/17 08:33:13;;;;;;;30.75;25.65;;;;;;;;;;5058405;28;20370;-82
2020/12/17 08:35:39;;;;;;;31.88;25.00;;;;;;;;;;5056291;28;20392;-81
2020/12/17 08:38:09;;;;;;;32.72;25.80;;;;;;;;;;5051492;28;20379;-81
2020/12/17 08:40:36;;;;;;;29.80;24.58;;;;;;;;;;5068874;28;20366;-83
2020/12/17 08:43:04;;;;;;;34.07;25.90;;;;;;;;;;5062007;28;20462;-85
2020/12/17 08:45:30;;;;;;;29.97;23.77;;;;;;;;;;5049740;28;20382;-80
2020/12/17 08:48:00;;;;;;;34.50;25.08;;;;;;;;;;5063628;28;20848;-81
2020/12/17 08:50:26;;;;;;;29.27;23.23;;;;;;;;;;5068702;28;20441;-82
2020/12/17 08:52:53;;;;;;;30.00;24.17;;;;;;;;;;5061540;28;20390;-80
2020/12/17 08:55:20;;;;;;;31.10;24.63;;;;;;;;;;5049567;28;20890;-81
2020/12/17 08:57:47;;;;;;;28.95;23.52;;;;;;;;;;5048858;28;20384;-82
2020/12/17 09:00:15;;;;;;;30.67;24.58;;;;;;;;;;5057615;28;20370;-81
2020/12/17 09:02:44;;;;;;;30.60;23.10;;;;;;;;;;5039164;28;20877;-81
2020/12/17 09:05:12;;;;;;;30.15;24.58;;;;;;;;;;5065985;28;20374;-82
2020/12/17 09:07:40;;;;;;;31.13;24.67;;;;;;;;;;5047437;28;20375;-81
2020/12/17 09:10:10;;;;;;;33.30;25.10;;;;;;;;;;5048801;28;20376;-82
2020/12/17 09:12:36;;;;;;;29.77;23.73;;;;;;;;;;5051155;28;20424;-82
2020/12/17 09:15:10;;;;;;;26.70;22.52;;;;;;;;;;5062717;28;20397;-81
2020/12/17 09:17:36;;;;;;;28.02;22.55;;;;;;;;;;5054312;28;20849;-82
2020/12/17 09:20:14;;;;;;;28.13;22.65;;;;;;;;;;5069080;28;20434;-83
2020/12/17 09:22:40;;;;;;;28.95;22.52;;;;;;;;;;5050258;28;20401;-81
2020/12/17 09:25:06;;;;;;;26.70;22.75;;;;;;;;;;5057174;28;20400;-81
2020/12/17 09:27:37;;;;;;;27.43;21.83;;;;;;;;;;5069409;28;20931;-82
2020/12/17 09:30:08;;;;;;;27.00;21.70;;;;;;;;;;5053534;28;20368;-82
2020/12/17 09:32:55;;;;;;;26.85;21.88;;;;;;;;;;5051949;28;20385;-82
2020/12/17 09:35:22;;;;;;;27.57;21.97;;;;;;;;;;5067585;28;20397;-81
2020/12/17 09:37:58;;;;;;;27.05;21.92;;;;;;;;;;5049538;28;20846;-82
2020/12/17 09:40:24;;;;;;;27.02;21.42;;;;;;;;;;5058393;28;20921;-81
2020/12/17 09:43:01;;;;;;;25.60;20.50;;;;;;;;;;5064015;28;20374;-82
2020/12/17 09:45:28;;;;;;;25.17;20.42;;;;;;;;;;5041566;28;20429;-81
2020/12/17 09:47:54;;;;;;;24.52;20.50;;;;;;;;;;5035976;28;20719;-81
2020/12/17 09:50:20;;;;;;;26.27;20.47;;;;;;;;;;5040958;28;20462;-82
2020/12/17 09:52:46;;;;;;;23.92;19.88;;;;;;;;;;5053115;28;20375;-81
2020/12/17 09:55:13;;;;;;;25.25;20.52;;;;;;;;;;5061510;28;20399;-82
2020/12/17 09:57:47;;;;;;;23.15;19.33;;;;;;;;;;5054478;28;20372;-81
2020/12/17 10:00:14;;;;;;;23.20;18.95;;;;;;;;;;5061421;28;20845;-80
2020/12/17 10:02:43;;;;;;;24.60;20.02;;;;;;;;;;5042010;28;20383;-80
2020/12/17 10:05:11;;;;;;;25.77;19.73;;;;;;;;;;5069656;28;20908;-81
2020/12/17 10:07:37;;;;;;;23.98;18.67;;;;;;;;;;5034955;28;20922;-81
2020/12/17 10:10:04;;;;;;;24.40;18.60;;;;;;;;;;5034611;28;20908;-80
2020/12/17 10:12:30;;;;;;;20.52;17.90;;;;;;;;;;5052512;28;20372;-80
2020/12/17 10:14:56;;;;;;;23.58;18.77;;;;;;;;;;5052889;28;21141;-81
2020/12/17 10:17:22;;;;;;;22.55;18.02;;;;;;;;;;5052519;28;20806;-81
2020/12/17 10:19:49;;;;;;;21.90;17.25;;;;;;;;;;5052687;28;20374;-81
2020/12/17 10:22:15;;;;;;;24.03;19.80;;;;;;;;;;5035019;28;20735;-80
2020/12/17 10:24:41;;;;;;;22.00;17.48;;;;;;;;;;5052995;28;20360;-81
2020/12/17 10:27:07;;;;;;;20.65;17.15;;;;;;;;;;5034647;28;20364;-80
2020/12/17 10:29:35;;;;;;;21.30;16.63;;;;;;;;;;5059453;28;20366;-81
2020/12/17 10:32:01;;;;;;;21.23;17.20;;;;;;;;;;5054438;28;20416;-81
2020/12/17 10:34:27;;;;;;;19.35;16.38;;;;;;;;;;5072616;28;20874;-81
2020/12/17 10:36:53;;;;;;;20.80;16.75;;;;;;;;;;5071889;28;20386;-81
2020/12/17 10:39:19;;;;;;;19.38;16.75;;;;;;;;;;5054166;28;20412;-81
2020/12/17 10:41:45;;;;;;;19.45;15.98;;;;;;;;;;5072091;28;20351;-81
2020/12/17 10:44:11;;;;;;;18.77;15.27;;;;;;;;;;5072399;28;20407;-81
2020/12/17 10:46:37;;;;;;;19.17;15.80;;;;;;;;;;5052057;28;20403;-80
2020/12/17 10:49:04;;;;;;;21.80;16.48;;;;;;;;;;5052073;28;20360;-81
2020/12/17 10:51:31;;;;;;;17.33;14.80;;;;;;;;;;5034535;28;20944;-81
2020/12/17 10:53:57;;;;;;;16.60;14.45;;;;;;;;;;5052342;28;20362;-81
2020/12/17 10:56:23;;;;;;;17.73;14.40;;;;;;;;;;5051389;28;20877;-81
2020/12/17 10:58:50;;;;;;;16.52;13.70;;;;;;;;;;5052287;28;20429;-81
2020/12/17 11:01:23;;;;;;;17.52;14.88;;;;;;;;;;5034124;28;20820;-81
2020/12/17 11:03:51;;;;;;;15.57;13.57;;;;;;;;;;5034382;28;20367;-81
2020/12/17 11:06:17;;;;;;;16.23;13.53;;;;;;;;;;5034193;28;20367;-81
2020/12/17 11:08:43;;;;;;;16.98;13.85;;;;;;;;;;5052307;28;20435;-87
2020/12/17 11:11:10;;;;;;;16.10;13.13;;;;;;;;;;5052465;28;20414;-83
2020/12/17 11:13:36;;;;;;;15.07;13.45;;;;;;;;;;5034386;28;20730;-83
2020/12/17 11:16:02;;;;;;;15.40;13.13;;;;;;;;;;5052118;28;20728;-83
2020/12/17 11:18:28;;;;;;;14.87;12.57;;;;;;;;;;5033259;28;20390;-83
2020/12/17 11:20:54;;;;;;;15.23;12.60;;;;;;;;;;5033494;28;20919;-83
2020/12/17 11:23:20;;;;;;;15.25;12.77;;;;;;;;;;5033406;28;20377;-83
2020/12/17 11:25:46;;;;;;;15.02;12.38;;;;;;;;;;5051897;28;20845;-82
2020/12/17 11:28:12;;;;;;;15.55;12.32;;;;;;;;;;5033687;28;20368;-83
2020/12/17 11:30:38;;;;;;;14.18;12.35;;;;;;;;;;5050942;28;20367;-83
2020/12/17 11:33:05;;;;;;;13.90;12.07;;;;;;;;;;5033386;28;20376;-83
2020/12/17 11:35:31;;;;;;;15.30;12.70;;;;;;;;;;5033161;28;20457;-83
2020/12/17 11:37:57;;;;;;;13.80;11.93;;;;;;;;;;5032729;28;20372;-82
2020/12/17 11:40:24;;;;;;;14.95;12.02;;;;;;;;;;5051361;28;20356;-82
2020/12/17 11:42:50;;;;;;;13.73;11.63;;;;;;;;;;5033382;28;20419;-83
2020/12/17 11:45:16;;;;;;;12.57;11.13;;;;;;;;;;5051253;28;20371;-83
2020/12/17 11:47:42;;;;;;;14.80;11.90;;;;;;;;;;5033107;28;20368;-82
2020/12/17 11:50:09;;;;;;;14.65;11.63;;;;;;;;;;5050680;28;20360;-83
2020/12/17 11:52:35;;;;;;;14.02;11.20;;;;;;;;;;5032778;28;20897;-83
2020/12/17 11:55:06;;;;;;;13.38;11.98;;;;;;;;;;5050987;28;20438;-83
2020/12/17 11:57:32;;;;;;;13.95;11.48;;;;;;;;;;5032410;28;20383;-80
2020/12/17 11:59:58;;;;;;;13.57;11.13;;;;;;;;;;5050746;28;20369;-81
2020/12/17 12:02:24;;;;;;;14.13;11.23;;;;;;;;;;5032972;28;20368;-81
2020/12/17 12:04:50;;;;;;;13.37;10.93;;;;;;;;;;5050624;28;20723;-82
2020/12/17 12:07:16;;;;;;;14.50;11.10;;;;;;;;;;5032365;28;20368;-81
2020/12/17 12:09:42;;;;;;;13.63;10.95;;;;;;;;;;5050699;28;20393;-82
2020/12/17 12:12:08;;;;;;;14.63;11.50;;;;;;;;;;5033053;28;20451;-82
2020/12/17 12:14:34;;;;;;;11.63;10.32;;;;;;;;;;5050655;28;20965;-83
2020/12/17 12:17:00;;;;;;;13.13;10.73;;;;;;;;;;5032501;28;20370;-83
2020/12/17 12:19:26;;;;;;;12.48;10.77;;;;;;;;;;5050143;28;20360;-83
2020/12/17 12:21:53;;;;;;;12.82;10.00;;;;;;;;;;5050388;28;20367;-83
2020/12/17 12:24:19;;;;;;;12.83;10.50;;;;;;;;;;5032748;28;20416;-84
2020/12/17 12:26:45;;;;;;;12.55;10.35;;;;;;;;;;5050750;28;20561;-84
2020/12/17 12:29:11;;;;;;;12.20;10.05;;;;;;;;;;5032129;28;20715;-83
2020/12/17 12:31:37;;;;;;;12.48;10.50;;;;;;;;;;5032385;28;20368;-83
2020/12/17 12:34:04;;;;;;;12.57;10.18;;;;;;;;;;5050164;28;20740;-84
2020/12/17 12:36:30;;;;;;;13.23;10.23;;;;;;;;;;5049884;28;20399;-83
2020/12/17 12:38:56;;;;;;;12.60;10.63;;;;;;;;;;5049807;28;20900;-83
2020/12/17 12:41:22;;;;;;;14.40;10.85;;;;;;;;;;5050356;28;20364;-84
2020/12/17 12:43:48;;;;;;;13.02;10.85;;;;;;;;;;5032394;28;20374;-84
2020/12/17 12:46:18;;;;;;;14.37;11.10;;;;;;;;;;5050133;28;20385;-83
2020/12/17 12:48:44;;;;;;;13.50;11.40;;;;;;;;;;5049931;28;20400;-83
2020/12/17 12:51:10;;;;;;;13.52;10.55;;;;;;;;;;5031985;28;20384;-83
2020/12/17 12:53:36;;;;;;;13.75;10.77;;;;;;;;;;5050487;28;20363;-84
2020/12/17 12:56:02;;;;;;;12.95;10.68;;;;;;;;;;5032352;28;20388;-83
2020/12/17 12:58:28;;;;;;;14.38;11.00;;;;;;;;;;5050660;28;20478;-83
2020/12/17 13:00:54;;;;;;;12.52;10.27;;;;;;;;;;5031921;28;20402;-85
2020/12/17 13:03:20;;;;;;;14.52;10.45;;;;;;;;;;5044990;28;20376;-81
2020/12/17 13:05:46;;;;;;;13.77;11.05;;;;;;;;;;5044178;28;20809;-82
2020/12/17 13:08:12;;;;;;;14.77;10.93;;;;;;;;;;5059633;28;20384;-82
2020/12/17 13:10:39;;;;;;;12.73;10.82;;;;;;;;;;5040679;28;20366;-86
2020/12/17 13:13:06;;;;;;;13.02;10.90;;;;;;;;;;5044095;28;20771;-84
2020/12/17 13:15:35;;;;;;;13.50;11.20;;;;;;;;;;5040130;28;20403;-81
2020/12/17 13:18:01;;;;;;;14.55;11.07;;;;;;;;;;5041907;28;20423;-81
2020/12/17 13:20:27;;;;;;;15.07;11.52;;;;;;;;;;5059464;28;20372;-82
2020/12/17 13:22:54;;;;;;;13.43;10.47;;;;;;;;;;5045651;28;20407;-82
2020/12/17 13:25:21;;;;;;;15.70;11.93;;;;;;;;;;5042061;28;20400;-81
2020/12/17 13:27:47;;;;;;;14.32;11.65;;;;;;;;;;5045774;28;20384;-81
2020/12/17 13:30:13;;;;;;;16.13;11.15;;;;;;;;;;5064234;28;20354;-88
2020/12/17 13:32:39;;;;;;;13.15;11.27;;;;;;;;;;5039667;28;20386;-81
2020/12/17 13:35:05;;;;;;;13.20;11.20;;;;;;;;;;5048548;28;20431;-86
2020/12/17 13:37:31;;;;;;;13.65;10.65;;;;;;;;;;5035383;28;20382;-82
2020/12/17 13:39:57;;;;;;;15.45;11.45;;;;;;;;;;5035611;28;20715;-81
2020/12/17 13:42:24;;;;;;;14.20;11.43;;;;;;;;;;5041098;28;20378;-81
2020/12/17 13:44:50;;;;;;;13.88;11.02;;;;;;;;;;5042153;28;20364;-81
2020/12/17 13:47:16;;;;;;;13.80;10.98;;;;;;;;;;5042584;28;20382;-81
2020/12/17 13:49:43;;;;;;;12.45;11.07;;;;;;;;;;5048063;28;20478;-81
2020/12/17 13:52:11;;;;;;;14.73;10.48;;;;;;;;;;5061922;28;20426;-80
2020/12/17 13:54:37;;;;;;;12.25;10.95;;;;;;;;;;5062168;28;20361;-81
2020/12/17 13:57:04;;;;;;;13.88;11.40;;;;;;;;;;5040704;28;20376;-81
2020/12/17 13:59:30;;;;;;;15.18;10.95;;;;;;;;;;5034506;28;20387;-80
2020/12/17 14:01:57;;;;;;;15.55;11.38;;;;;;;;;;5052885;28;20447;-81
2020/12/17 14:04:26;;;;;;;13.57;11.20;;;;;;;;;;5035442;28;20368;-81
2020/12/17 14:06:52;;;;;;;14.68;10.98;;;;;;;;;;5053005;28;20734;-83
2020/12/17 14:09:18;;;;;;;15.07;11.52;;;;;;;;;;5035000;28;20364;-81
2020/12/17 14:11:45;;;;;;;17.15;11.65;;;;;;;;;;5035003;28;20375;-82
2020/12/17 14:14:11;;;;;;;13.95;10.85;;;;;;;;;;5034770;28;20676;-86